Latest Weather Observations for Rabbit Flat

IDD60801

Issued at 11:01 pm CST Sunday 21 July 2019 (issued every 10 minutes, with the page automatically refreshed every 10 minutes)

About weather observations | Map of weather stations | Latest weather observations for NT | Other Formats
Station Details ID: 015666 Name: RABBIT FLAT Lat: -20.18 Lon: 130.01 Height: 340.0 m
Data from the previous 72 hours. | See also: Recent months at Rabbit Flat
Date/Time
CST
Temp
°C
App
Temp
°C
Dew
Point
°C
Rel
Hum
%
Delta-T
°C
Wind Press
QNH
hPa
Press
MSL
hPa
Rain since
9am
mm
Dir  Spd
km/h
Gust
km/h
Spd
kts
Gust
kts
21/11:00pm 19.9 15.1 -5.8 17 10.3 SW 11 13 6 7 1014.1 - 0.0
21/10:30pm 18.7 15.9 -6.8 17 9.9 CALM 0 0 0 0 1014.3 - 0.0
21/10:00pm 21.2 16.7 -6.4 15 11.1 SSW 9 13 5 7 1014.1 - 0.0
21/09:30pm 21.9 16.6 -6.8 14 11.5 SSW 13 15 7 8 1014.0 - 0.0
21/09:00pm 22.7 17.5 -6.1 14 11.8 SW 13 17 7 9 1013.9 1013.2 0.0
21/08:30pm 23.8 18.6 -6.2 13 12.4 SSW 13 17 7 9 1013.6 - 0.0
21/08:00pm 23.7 18.1 -6.3 13 12.3 SW 15 17 8 9 1013.3 - 0.0
21/07:30pm 23.9 19.1 -6.2 13 12.4 SW 11 15 6 8 1013.0 - 0.0
21/07:00pm 25.8 20.9 -6.9 11 13.6 WSW 11 13 6 7 1012.5 - 0.0
21/06:30pm 28.0 23.5 -6.4 10 14.7 WSW 9 11 5 6 1012.2 - 0.0
21/06:00pm 30.8 26.4 -5.7 9 16.2 W 9 13 5 7 1011.9 1011.3 0.0
21/05:30pm 31.5 26.3 -6.7 8 16.7 W 13 20 7 11 1011.8 - 0.0
21/05:00pm 32.0 28.1 -6.3 8 16.9 W 6 9 3 5 1011.8 - 0.0
21/04:30pm 31.7 26.5 -6.6 8 16.8 W 13 20 7 11 1011.8 - 0.0
21/04:00pm 32.4 27.2 -6.0 8 17.1 NNW 13 24 7 13 1011.9 - 0.0
21/03:30pm 31.9 26.7 -6.4 8 16.9 W 13 20 7 11 1012.0 - 0.0
21/03:00pm 32.3 27.5 -6.1 8 17.1 W 11 20 6 11 1012.3 1011.7 0.0
21/02:30pm 31.8 25.8 -6.5 8 16.9 NNW 17 24 9 13 1012.5 - 0.0
21/02:00pm 31.9 26.3 -6.4 8 16.9 WNW 15 24 8 13 1012.9 - 0.0
21/01:30pm 31.2 26.3 -6.9 8 16.6 NNW 11 20 6 11 1013.6 - 0.0
21/01:00pm 30.3 24.2 -7.6 8 16.2 NNW 17 24 9 13 1014.2 - 0.0
21/12:30pm 29.8 24.1 -8.0 8 15.9 NW 15 20 8 11 1014.8 - 0.0
21/12:00pm 28.7 23.4 -7.3 9 15.2 NW 13 20 7 11 1015.2 1014.6 0.0
21/11:30am 28.4 22.7 -7.5 9 15.1 NW 15 19 8 10 1015.5 - 0.0
21/11:00am 27.6 22.4 -6.7 10 14.5 NW 13 20 7 11 1015.9 - 0.0
21/10:30am 26.7 22.1 -7.4 10 14.1 NW 9 15 5 8 1016.2 - 0.0
21/10:00am 25.7 20.8 -6.9 11 13.5 NW 11 17 6 9 1016.3 - 0.0
21/09:30am 24.1 19.6 -7.0 12 12.7 WNW 9 13 5 7 1016.2 - 0.0
21/09:00am 21.5 17.1 -6.2 15 11.2 NNW 9 11 5 6 1016.1 1015.4 0.0
21/08:57am 21.0 17.0 -5.7 16 10.8 NW 7 11 4 6 1016.1 - 0.0
21/08:30am 15.9 11.9 -5.8 22 8.3 NNW 7 9 4 5 1016.1 - 0.0
21/08:00am 11.6 7.5 -6.7 27 6.5 N 7 7 4 4 1015.9 - 0.0
21/07:30am 9.5 5.3 -7.2 30 5.7 NNE 7 9 4 5 1015.6 - 0.0
21/07:00am 10.5 6.5 -7.7 27 6.3 W 6 11 3 6 1015.4 - 0.0
21/06:30am 11.5 7.5 -5.9 29 6.3 SSW 7 13 4 7 1015.4 - 0.0
21/06:00am 9.5 5.5 -7.6 29 5.8 N 6 11 3 6 1014.9 1014.3 0.0
21/05:30am 9.7 5.5 -9.9 24 6.3 N 6 7 3 4 1014.4 - 0.0
21/05:00am 10.0 6.0 -8.1 27 6.1 N 6 6 3 3 1014.4 - 0.0
21/04:30am 9.8 5.7 -8.3 27 6.1 N 6 7 3 4 1014.4 - 0.0
21/04:00am 9.5 5.3 -9.5 25 6.2 N 6 7 3 4 1014.5 - 0.0
21/03:30am 10.5 6.3 -8.2 26 6.4 N 7 9 4 5 1014.4 - 0.0
21/03:00am 10.7 6.3 -9.6 23 6.7 N 7 9 4 5 1014.8 1014.2 0.0
21/02:30am 11.3 7.1 -9.6 22 7.0 NNE 6 7 3 4 1015.0 - 0.0
21/02:00am 11.7 7.5 -9.9 21 7.2 N 6 7 3 4 1015.2 - 0.0
21/01:30am 12.4 8.4 -8.1 23 7.2 ENE 6 9 3 5 1015.2 - 0.0
21/01:00am 13.6 10.4 -7.7 22 7.6 ENE 2 7 1 4 1015.3 - 0.0
21/12:30am 14.2 11.3 -7.8 21 7.9 CALM 0 0 0 0 1015.4 - 0.0
21/12:00am 14.6 10.9 -8.1 20 8.1 NE 4 6 2 3 1015.5 1014.9 0.0
 
Date/Time
CST
Temp
°C
App
Temp
°C
Dew
Point
°C
Rel
Hum
%
Delta-T
°C
Wind Press
QNH
hPa
Press
MSL
hPa
Rain since
9am
mm
Dir  Spd
km/h
Gust
km/h
Spd
kts
Gust
kts
20/11:30pm 15.1 11.8 -8.3 19 8.4 NNE 2 7 1 4 1015.7 - 0.0
20/11:00pm 15.3 11.3 -7.5 20 8.4 N 6 7 3 4 1015.4 - 0.0
20/10:30pm 16.0 11.4 -8.3 18 8.8 N 9 9 5 5 1015.6 - 0.0
20/10:00pm 16.6 12.3 -8.5 17 9.2 N 7 9 4 5 1015.5 - 0.0
20/09:30pm 17.2 12.8 -9.6 15 9.6 N 7 9 4 5 1015.5 - 0.0
20/09:00pm 18.0 13.6 -9.9 14 10.0 NNE 7 9 4 5 1015.5 1014.9 0.0
20/08:30pm 20.8 16.5 -8.6 13 11.2 NE 7 9 4 5 1015.2 - 0.0
20/08:00pm 22.4 17.9 -7.3 13 11.8 NE 9 11 5 6 1014.6 - 0.0
20/07:30pm 24.2 19.6 -8.1 11 12.9 NE 9 13 5 7 1014.3 - 0.0
20/07:00pm 25.2 20.3 -7.3 11 13.3 NE 11 13 6 7 1014.1 - 0.0
20/06:30pm 27.0 22.4 -8.5 9 14.5 NNE 9 11 5 6 1014.1 - 0.0
20/06:00pm 28.9 24.2 -8.6 8 15.5 NNE 9 13 5 7 1014.1 1013.4 0.0
20/05:30pm 30.7 25.8 -7.3 8 16.3 NNE 11 19 6 10 1013.9 - 0.0
20/05:00pm 31.0 26.1 -7.1 8 16.5 NNE 11 17 6 9 1013.8 - 0.0
20/04:30pm 31.4 26.8 -8.5 7 16.9 N 9 15 5 8 1013.8 - 0.0
20/04:00pm 31.5 27.4 -8.4 7 17.0 NNW 6 11 3 6 1014.0 - 0.0
20/03:30pm 31.0 26.5 -7.1 8 16.5 N 9 17 5 9 1014.2 - 0.0
20/03:00pm 31.2 26.7 -6.9 8 16.6 N 9 19 5 10 1014.5 1013.9 0.0
20/02:30pm 30.5 25.2 -7.4 8 16.2 N 13 24 7 13 1014.9 - 0.0
20/02:00pm 30.6 25.4 -5.8 9 16.1 N 13 20 7 11 1015.3 - 0.0
20/01:30pm 29.5 23.5 -6.7 9 15.6 NNE 17 24 9 13 1015.9 - 0.0
20/01:00pm 28.8 22.5 -5.8 10 15.0 NNE 19 26 10 14 1016.4 - 0.0
20/12:30pm 27.7 21.8 -5.4 11 14.3 N 17 26 9 14 1017.0 - 0.0
20/12:00pm 26.7 20.2 -6.2 11 13.9 N 20 30 11 16 1017.9 1017.3 0.0
20/11:30am 25.7 19.2 -5.8 12 13.3 NNE 20 30 11 16 1018.2 - 0.0
20/11:00am 24.5 18.6 -5.7 13 12.7 N 17 28 9 15 1018.6 - 0.0
20/10:30am 23.1 16.5 -6.8 13 12.1 NNE 20 24 11 13 1018.8 - 0.0
20/10:00am 22.1 16.2 -5.7 15 11.4 NNE 17 20 9 11 1018.5 - 0.0
20/09:30am 20.3 13.9 -4.8 18 10.3 NE 20 26 11 14 1017.8 - 0.0
20/09:00am 16.2 11.1 -4.9 23 8.3 NE 13 17 7 9 1018.2 1017.6 0.0
20/08:30am 14.1 10.3 -4.1 28 7.1 N 7 11 4 6 1018.2 - 0.0
20/08:27am 13.6 9.7 -4.5 28 7.0 N 7 9 4 5 1018.2 - 0.0
20/08:00am 8.5 4.4 -6.4 34 5.2 NW 7 11 4 6 1018.0 - 0.0
20/07:30am 5.8 1.2 -8.1 36 4.4 NNW 9 9 5 5 1017.7 - 0.0
20/07:00am 5.5 1.2 -9.1 34 4.5 NNW 7 9 4 5 1017.8 - 0.0
20/06:30am 5.6 1.5 -9.4 33 4.6 N 6 7 3 4 1017.6 - 0.0
20/06:00am 6.2 1.5 -9.2 32 4.8 N 9 9 5 5 1017.3 1016.7 0.0
20/05:30am 6.1 1.8 -9.3 32 4.8 NNW 7 9 4 5 1017.2 - 0.0
20/05:00am 6.5 2.8 -8.2 34 4.7 NNW 4 6 2 3 1016.9 - 0.0
20/04:30am 6.7 2.5 -9.6 30 5.1 WNW 6 7 3 4 1017.1 - 0.0
20/04:00am 7.0 2.9 -9.4 30 5.2 WNW 6 7 3 4 1017.3 - 0.0
20/03:30am 7.4 3.1 -9.0 30 5.2 W 7 9 4 5 1017.4 - 0.0
20/03:00am 7.6 3.3 -9.3 29 5.4 WNW 7 7 4 4 1017.3 1016.7 0.0
20/02:30am 8.4 4.2 -8.1 30 5.5 NW 7 9 4 5 1017.4 - 0.0
20/02:00am 8.7 4.1 -8.3 29 5.6 WNW 9 11 5 6 1017.6 - 0.0
20/01:30am 9.5 4.9 -7.6 29 5.8 W 9 11 5 6 1017.8 - 0.0
20/01:00am 8.8 4.5 -9.1 27 5.8 W 7 9 4 5 1017.9 - 0.0
20/12:30am 9.4 6.3 -10.1 24 6.3 CALM 0 0 0 0 1017.9 - 0.0
20/12:00am 10.0 7.0 -9.6 24 6.4 CALM 0 0 0 0 1017.9 1017.3 0.0
 
Date/Time
CST
Temp
°C
App
Temp
°C
Dew
Point
°C
Rel
Hum
%
Delta-T
°C
Wind Press
QNH
hPa
Press
MSL
hPa
Rain since
9am
mm
Dir  Spd
km/h
Gust
km/h
Spd
kts
Gust
kts
19/11:30pm 10.3 7.3 -8.8 25 6.4 CALM 0 0 0 0 1018.1 - 0.0
19/11:00pm 11.4 7.2 -10.1 21 7.1 NE 6 7 3 4 1017.9 - 0.0
19/10:30pm 12.2 7.9 -8.9 22 7.2 ENE 7 11 4 6 1017.8 - 0.0
19/10:00pm 13.6 9.1 -7.1 23 7.5 E 9 11 5 6 1017.8 - 0.0
19/09:30pm 15.9 11.1 -6.4 21 8.4 E 11 13 6 7 1017.6 - 0.0
19/09:00pm 15.0 10.8 -7.7 20 8.3 E 7 11 4 6 1017.5 1016.9 0.0
19/08:30pm 16.0 11.8 -7.6 19 8.7 ENE 7 9 4 5 1017.2 - 0.0
19/08:00pm 18.3 13.6 -8.7 15 10.0 ENE 9 9 5 5 1016.8 - 0.0
19/07:30pm 19.9 15.3 -7.5 15 10.6 E 9 11 5 6 1016.6 - 0.0
19/07:00pm 22.5 18.0 -7.3 13 11.9 E 9 11 5 6 1016.5 - 0.0
19/06:30pm 24.2 19.7 -7.0 12 12.7 E 9 11 5 6 1016.4 - 0.0
19/06:00pm 26.5 21.7 -6.3 11 13.8 ENE 11 15 6 8 1016.4 1015.7 0.0
19/05:30pm 27.2 22.3 -7.0 10 14.3 ENE 11 15 6 8 1016.3 - 0.0
19/05:00pm 27.5 22.6 -6.8 10 14.5 NE 11 17 6 9 1016.1 - 0.0
19/04:30pm 27.4 22.9 -6.9 10 14.4 ENE 9 17 5 9 1016.0 - 0.0
19/04:00pm 27.7 22.5 -6.6 10 14.6 NE 13 20 7 11 1016.2 - 0.0
19/03:30pm 27.6 21.7 -5.5 11 14.3 ENE 17 26 9 14 1016.2 - 0.0
19/03:00pm 27.0 21.1 -5.9 11 14.0 ENE 17 30 9 16 1016.2 1015.5 0.0
19/02:30pm 27.5 21.0 -5.6 11 14.3 NNE 20 30 11 16 1016.3 - 0.0
19/02:00pm 27.0 20.5 -5.9 11 14.0 NE 20 30 11 16 1016.8 - 0.0
19/01:30pm 26.4 20.0 -5.3 12 13.6 NE 20 33 11 18 1017.2 - 0.0
19/01:00pm 25.7 18.8 -5.8 12 13.3 ENE 22 33 12 18 1018.0 - 0.0
19/12:30pm 24.9 18.1 -5.4 13 12.8 ENE 22 35 12 19 1018.6 - 0.0
19/12:00pm 24.7 18.0 -4.6 14 12.5 NE 22 35 12 19 1019.1 1018.4 0.0
19/11:30am 23.7 16.5 -5.3 14 12.2 NE 24 35 13 19 1019.6 - 0.0
19/11:00am 22.9 16.1 -5.1 15 11.7 ENE 22 32 12 17 1020.0 - 0.0
19/10:30am 21.6 14.1 -4.5 17 10.9 ENE 26 35 14 19 1020.2 - 0.0
19/10:00am 21.1 14.0 -4.1 18 10.6 ENE 24 33 13 18 1020.2 - 0.0
19/09:30am 18.6 14.1 -3.5 22 9.1 ENE 11 15 6 8 1020.1 - 0.0
19/09:00am 15.4 12.1 -4.0 26 7.7 NE 4 11 2 6 1019.9 1019.3 0.0
19/08:30am 10.9 8.3 -5.1 32 5.9 CALM 0 0 0 0 1019.8 - 0.0
19/08:00am 6.7 3.9 -6.9 37 4.5 CALM 0 0 0 0 1019.3 - 0.0
19/07:30am 4.5 1.6 -8.2 39 4.0 CALM 0 0 0 0 1019.0 - 0.0
19/07:00am 4.6 0.9 -8.1 39 4.0 SSE 4 6 2 3 1018.7 - 0.0
19/06:30am 5.1 1.2 -6.4 43 3.8 SSE 6 7 3 4 1018.6 - 0.0
19/06:00am 4.8 1.9 -7.6 40 3.9 CALM 0 4 0 2 1018.4 1017.8 0.0
19/05:30am 5.3 2.4 -7.8 38 4.2 CALM 0 0 0 0 1018.2 - 0.0
19/05:00am 5.4 2.6 -7.1 40 4.1 CALM 0 0 0 0 1018.2 - 0.0
19/04:30am 6.1 3.3 -6.8 39 4.3 CALM 0 0 0 0 1018.1 - 0.0
19/04:00am 5.9 3.0 -8.4 35 4.5 CALM 0 0 0 0 1018.5 - 0.0
19/03:30am 6.9 4.2 -6.4 38 4.5 CALM 0 0 0 0 1018.4 - 0.0
19/03:00am 7.3 4.4 -7.5 34 4.9 CALM 0 4 0 2 1018.5 1017.9 0.0
19/02:30am 8.1 3.9 -7.6 32 5.3 S 7 7 4 4 1018.5 - 0.0
19/02:00am 9.0 4.6 -5.6 35 5.2 SSE 9 11 5 6 1018.8 - 0.0
19/01:30am 8.2 4.1 -7.1 33 5.2 SSE 7 9 4 5 1019.0 - 0.0
19/01:00am 9.3 4.9 -6.1 33 5.4 S 9 11 5 6 1019.0 - 0.0
19/12:30am 9.0 5.1 -6.8 32 5.5 ESE 6 7 3 4 1018.7 - 0.0
19/12:00am 9.0 5.4 -7.6 30 5.6 E 4 7 2 4 1018.7 1018.1 0.0
 
Date/Time
CST
Temp
°C
App
Temp
°C
Dew
Point
°C
Rel
Hum
%
Delta-T
°C
Wind Press
QNH
hPa
Press
MSL
hPa
Rain since
9am
mm
Dir  Spd
km/h
Gust
km/h
Spd
kts
Gust
kts
18/11:30pm 10.2 5.8 -6.2 31 5.8 E 9 9 5 5 1018.7 - 0.0

Other formats

Comma delimited format used in spreadsheet applications
http://www.bom.gov.au/fwo/IDD60801/IDD60801.95322.axf

JavaScript Object Notation format (JSON) in row-major order
http://www.bom.gov.au/fwo/IDD60801/IDD60801.95322.json

Data quality

Most of these data are generated automatically and are frequently updated. Quality checks on data are not normally performed. It is possible for incorrect values to appear. Refer to information at About Latest Weather Observations and please check the disclaimer before using these data.